• Join FlightAware (Why Join?)
  • Login
  • US Flag 
03:43AM EDT


 

Airport Tracker/Info


-or-


 

Live Flight TrackerFlight Track Log ✈ UAL1583 ✈ 23-Sep-2013 ✈ KSFO - KEWR

Flight Track Log - Related Links

Times and Time Zones

All times are in EDT time to prevent confusion due to time zone crossing. See the UAL1583 flight status page for this flight to view local times or setup timezone preferences in your user account.

Time Position Orientation Groundspeed Altitude Reporting Facility
EDT Latitude Longitude Course Direction KTS MPH feet Rate Location/Type
09:39AM 37.6667 -122.3500 90° East 181 208 1,900  Level Northern Cal TRACON
09:40AM 37.7167 -122.3333 15° North 246 283 4,000 2,400 Climbing Northern Cal TRACON
09:41AM 37.7101 -122.0612 80° East  Level Estimated
09:41AM 37.7833 -122.3667 338° Northwest 275 316 6,800  Level Northern Cal TRACON
09:42AM 37.7553 -121.9039 84° East  Level Estimated
09:42AM 37.8500 -122.3833 349° North 273 314 9,400  Level Northern Cal TRACON
09:43AM 37.8003 -121.7464 76° East  Level Estimated
09:44AM 37.8450 -121.5887 90° East  Level Estimated
09:44AM 37.9050 -122.2875 54° Northeast 322 371 11,600  Level Oakland Center
09:45AM 37.8896 -121.4308 90° East  Level Estimated
09:45AM 37.9219 -122.1575 81° East 371 427 12,700  Level Oakland Center
09:46AM 37.9425 -122.0117 80° East 412 474 14,300 1,740 Climbing Oakland Center
09:47AM 37.9658 -121.8311 81° East 432 497 16,300 1,800 Climbing Oakland Center
09:48AM 37.9861 -121.6761 81° East 446 513 18,000 1,620 Climbing Oakland Center
09:49AM 38.0075 -121.5153 80° East 459 528 19,700 1,560 Climbing Oakland Center
09:50AM 38.0264 -121.3728 80° East 472 543 21,200 1,380 Climbing Oakland Center
09:51AM 38.0531 -121.1689 81° East 491 565 22,600 1,260 Climbing Oakland Center
09:52AM 38.0761 -120.9944 80° East 503 579 23,800 1,200 Climbing Oakland Center
09:53AM 38.1172 -120.8228 73° East 513 590 25,100 1,080 Climbing Oakland Center
09:54AM 38.1583 -120.6492 73° East 518 596 26,100 1,140 Climbing Oakland Center
09:55AM 38.2006 -120.4711 73° East 527 606 27,500 1,320 Climbing Oakland Center
09:56AM 38.2422 -120.2947 73° East 524 603 28,800 1,200 Climbing Oakland Center
09:57AM 38.2853 -120.1158 73° East 528 608 30,000 1,200 Climbing Oakland Center
09:58AM 38.3281 -119.9392 73° East 527 606 31,300 1,260 Climbing Oakland Center
09:59AM 38.3683 -119.7625 74° East 523 602 32,600 1,200 Climbing Oakland Center
10:00AM 38.4131 -119.5667 74° East 520 598 33,800 900 Climbing Oakland Center
10:01AM 38.4522 -119.3911 74° East 518 596 34,500 660 Climbing Oakland Center
10:02AM 38.4922 -119.2122 74° East 526 605 35,200 780 Climbing Oakland Center
10:03AM 38.5172 -119.0286 80° East 528 608 36,100 840 Climbing Oakland Center
10:04AM 38.5350 -118.8425 83° East 530 610 36,900 420 Climbing Oakland Center
10:05AM 38.5536 -118.6597 83° East 525 604 37,000  Climbing Oakland Center
10:06AM 38.5725 -118.4733 83° East 530 610 37,000  Level Oakland Center
10:07AM 38.5900 -118.2892 83° East 528 608 37,000  Level Oakland Center
10:08AM 38.6094 -118.0828 83° East 530 610 37,000  Level Oakland Center
10:09AM 38.6261 -117.8939 83° East 533 613 37,000  Level Oakland Center
10:10AM 38.6436 -117.7058 83° East 531 611 37,000  Level Oakland Center
10:11AM 38.6603 -117.5167 84° East 531 611 37,000  Level Oakland Center
10:12AM 38.6758 -117.3275 84° East 532 612 37,000  Level Oakland Center
10:13AM 38.7019 -117.1411 80° East 529 609 37,000  Level Oakland Center
10:14AM 38.7306 -116.9553 79° East 528 608 37,000  Level Oakland Center
10:15AM 38.7575 -116.7694 79° East 528 608 37,000  Level Oakland Center
10:16AM 38.7842 -116.5847 79° East 526 605 37,000  Level Oakland Center
10:17AM 38.8108 -116.3983 80° East 530 610 37,000  Level Oakland Center
10:18AM 38.8361 -116.2119 80° East 530 610 37,000  Level Oakland Center
10:20AM 38.8781 -115.9172 80° East 526 605 37,000  Level Salt Lake Center
10:21AM 38.9039 -115.7319 80° East 527 606 37,000  Level Salt Lake Center
10:22AM 38.9303 -115.5453 80° East 531 611 37,000  Level Salt Lake Center
10:23AM 38.9575 -115.3486 80° East 528 608 37,000  Level Salt Lake Center
10:24AM 38.9828 -115.1614 80° East 532 612 37,000  Level Salt Lake Center
10:25AM 39.0072 -114.9747 80° East 531 611 37,000  Level Salt Lake Center
10:26AM 39.0319 -114.7878 80° East 531 611 37,000  Level Salt Lake Center
10:27AM 39.0550 -114.6019 81° East 529 609 37,000  Level Salt Lake Center
10:28AM 39.0786 -114.4164 81° East 527 606 37,000  Level Salt Lake Center
10:29AM 39.1017 -114.2294 81° East 529 609 37,000  Level Salt Lake Center
10:30AM 39.1297 -114.0050 81° East 529 609 37,000  Level Salt Lake Center
10:31AM 39.1522 -113.8200 81° East 525 604 37,000  Level Salt Lake Center
10:32AM 39.1742 -113.6364 81° East 520 598 37,000  Level Salt Lake Center
10:33AM 39.1967 -113.4522 81° East 520 598 37,000  Level Salt Lake Center
10:34AM 39.2172 -113.2678 82° East 520 598 37,000  Level Salt Lake Center
10:35AM 39.2383 -113.0847 81° East 518 596 37,000  Level Salt Lake Center
10:36AM 39.2589 -112.9025 82° East 514 592 37,000  Level Salt Lake Center
10:37AM 39.2792 -112.7189 82° East 516 594 37,000  Level Salt Lake Center
10:38AM 39.3036 -112.5086 81° East 515 593 37,000  Level Salt Lake Center
10:39AM 39.3539 -112.3425 69° East 505 581 37,000  Level Salt Lake Center
10:40AM 39.4053 -112.1775 68° East 499 574 37,000  Level Salt Lake Center
10:41AM 39.4569 -112.0092 68° East 504 580 37,000  Level Salt Lake Center
10:42AM 39.5189 -111.8078 68° East 503 579 37,000  Level Salt Lake Center
10:43AM 39.5692 -111.6394 69° East 505 581 37,000  Level Salt Lake Center
10:44AM 39.6200 -111.4725 68° East 502 578 37,000  Level Salt Lake Center
10:45AM 39.6519 -111.2939 77° East 512 589 37,000  Level Salt Lake Center
10:46AM 39.6794 -111.1003 79° East 511 588 37,000  Level Salt Lake Center
10:47AM 39.7033 -110.9264 80° East 513 590 37,000  Level Salt Lake Center
10:49AM 39.7308 -110.7219 80° East 514 592 37,000  Level Salt Lake Center
10:50AM 39.7542 -110.5481 80° East 512 589 37,000  Level Salt Lake Center
10:51AM 39.7814 -110.3458 80° East 510 587 37,000  Level Salt Lake Center
10:52AM 39.8022 -110.1733 81° East 506 582 37,000  Level Salt Lake Center
10:53AM 39.8278 -109.9703 81° East 509 586 37,000  Level Salt Lake Center
10:54AM 39.8506 -109.7969 80° East 509 586 37,000  Level Salt Lake Center
10:55AM 39.8714 -109.6214 81° East 512 589 37,000  Level Salt Lake Center
10:56AM 39.8961 -109.4169 81° East 512 589 37,000  Level Salt Lake Center
10:57AM 39.9172 -109.2417 81° East 509 586 37,000  Level Salt Lake Center
10:58AM 39.9353 -109.0933 81° East 511 588 37,000  Level Denver Center
10:59AM 39.9603 -108.8836 81° East 519 597 37,000  Level Denver Center
11:00AM 39.9800 -108.7061 82° East 514 592 37,000  Level Denver Center
11:01AM 40.0036 -108.4981 82° East 515 593 37,000  Level Denver Center
11:02AM 40.0231 -108.3219 82° East 510 587 37,000  Level Denver Center
11:03AM 40.0431 -108.1517 81° East 500 575 37,000  Level Denver Center
11:04AM 40.0644 -107.9525 82° East 495 570 37,000  Level Denver Center
11:05AM 40.0847 -107.7828 81° East 494 568 37,000  Level Denver Center
11:06AM 40.1161 -107.5842 78° East 499 574 37,000  Level Denver Center
11:07AM 40.1461 -107.4142 77° East 502 578 37,000  Level Denver Center
11:08AM 40.1794 -107.2217 77° East 489 563 37,000  Level Denver Center
11:09AM 40.2094 -107.0586 76° East 482 555 37,000  Level Denver Center
11:10AM 40.2414 -106.8667 78° East 484 557 37,000  Level Denver Center
11:11AM 40.2694 -106.7175 76° East 484 557 37,000  Level Denver Center
11:12AM 40.3047 -106.5089 77° East 488 562 37,000  Level Denver Center
11:13AM 40.3319 -106.3406 78° East 492 566 37,000  Level Denver Center
11:14AM 40.3639 -106.1531 77° East 497 572 37,000  Level Denver Center
11:15AM 40.3922 -105.9858 77° East 496 571 37,000  Level Denver Center
11:16AM 40.4208 -105.8078 78° East 499 574 37,000  Level Denver Center
11:17AM 40.4528 -105.5964 79° East 494 568 37,000  Level Denver Center
11:18AM 40.4800 -105.4208 78° East 493 567 37,000  Level Denver Center
11:19AM 40.5094 -105.2489 77° East 482 555 37,000  Level Denver Center
11:20AM 40.5361 -105.0753 79° East 483 556 37,000  Level Denver Center
11:21AM 40.5625 -104.9014 79° East 483 556 37,000  Level Denver Center
11:22AM 40.5900 -104.7247 78° East 490 564 37,000  Level Denver Center
11:23AM 40.6169 -104.5503 78° East 488 562 37,000  Level Denver Center
11:24AM 40.6467 -104.3383 79° East 489 563 37,000  Level Denver Center
11:25AM 40.6731 -104.1661 79° East 482 555 37,000  Level Denver Center
11:27AM 40.6989 -103.9958 79° East 470 541 37,000  Level Denver Center
11:28AM 40.7242 -103.8200 79° East 485 558 37,000  Level Denver Center
11:29AM 40.7497 -103.6414 79° East 494 568 37,000  Level Denver Center
11:30AM 40.7747 -103.4625 79° East 496 571 37,000  Level Denver Center
11:31AM 40.8044 -103.2483 80° East 495 570 37,000  Level Denver Center
11:32AM 40.8306 -103.0714 79° East 493 567 37,000  Level Denver Center
11:33AM 40.8558 -102.8836 80° East 492 566 37,000  Level Denver Center
11:34AM 40.8781 -102.7150 80° East 489 563 37,000  Level Denver Center
11:35AM 40.9028 -102.5181 81° East 487 560 37,000  Level Denver Center
11:36AM 40.9253 -102.3497 80° East 486 559 37,000  Level Denver Center
11:37AM 40.9469 -102.1808 80° East 486 559 37,000  Level Denver Center
11:38AM 40.9725 -101.9847 80° East 485 558 37,000  Level Denver Center
11:39AM 40.9933 -101.8147 81° East 489 563 37,000  Level Denver Center
11:40AM 41.0192 -101.6172 80° East 487 560 37,000  Level Denver Center
11:41AM 41.0403 -101.4492 80° East 484 557 37,000  Level Denver Center
11:42AM 41.0644 -101.2508 81° East 487 560 37,000  Level Denver Center
11:43AM 41.0847 -101.0833 81° East 482 555 37,000  Level Denver Center
11:44AM 41.1089 -100.8844 81° East 486 559 37,000  Level Denver Center
11:45AM 41.1294 -100.7108 81° East 491 565 37,000  Level Denver Center
11:46AM 41.1492 -100.5367 81° East 494 568 37,000  Level Denver Center
11:47AM 41.1722 -100.3322 81° East 498 573 37,000  Level Denver Center
11:48AM 41.1914 -100.1569 82° East 499 574 37,000  Level Denver Center
11:49AM 41.2136 -99.9533 82° East 499 574 37,000  Level Denver Center
11:50AM 41.2336 -99.7800 81° East 496 571 37,000  Level Denver Center
11:51AM 41.2544 -99.5778 82° East 495 570 37,000  Level Denver Center
11:52AM 41.2711 -99.4128 82° East 497 572 37,000  Level Denver Center
11:53AM 41.2906 -99.2319 82° East 494 568 37,000  Level Denver Center
11:55AM 41.3111 -99.0225 82° East 495 570 37,000  Level Minneapolis Center
11:56AM 41.3283 -98.8044 84° East 495 570 37,000  Level Minneapolis Center
11:57AM 41.3494 -98.6239 81° East 494 568 37,000  Level Minneapolis Center
11:58AM 41.3661 -98.4567 82° East 497 572 37,000  Level Minneapolis Center
11:59AM 41.3811 -98.2367 85° East 497 572 37,000  Level Minneapolis Center
12:00PM 41.3853 -98.0758 88° East 495 570 37,000  Level Minneapolis Center
12:01PM 41.3903 -97.8933 88° East 495 570 37,000  Level Minneapolis Center
12:02PM 41.3964 -97.6725 88° East 496 571 37,000  Level Minneapolis Center
12:03PM 41.4019 -97.4878 88° East 499 574 37,000  Level Minneapolis Center
12:04PM 41.4058 -97.3014 88° East 503 579 37,000  Level Minneapolis Center
12:05PM 41.4114 -97.1147 88° East 504 580 37,000  Level Minneapolis Center
12:06PM 41.4153 -96.9272 88° East 507 583 37,000  Level Minneapolis Center
12:07PM 41.4192 -96.7392 88° East 508 585 37,000  Level Minneapolis Center
12:08PM 41.4228 -96.5122 89° East 511 588 37,000  Level Minneapolis Center
12:09PM 41.4261 -96.3356 89° East 511 588 37,000  Level Minneapolis Center
12:10PM 41.4272 -96.1442 89° East 517 595 37,000  Level Minneapolis Center
12:11PM 41.4306 -95.9553 89° East 512 589 37,000  Level Minneapolis Center
12:12PM 41.4339 -95.7281 89° East 511 588 37,000  Level Minneapolis Center
12:13PM 41.4356 -95.5478 89° East 511 588 37,000  Level Minneapolis Center
12:14PM 41.4361 -95.3586 90° East 510 587 37,000  Level Minneapolis Center
12:15PM 41.4383 -95.1697 89° East 510 587 37,000  Level Minneapolis Center
12:16PM 41.4392 -94.9794 90° East 513 590 37,000  Level Minneapolis Center
12:17PM 41.4397 -94.7517 90° East 514 592 37,000  Level Minneapolis Center
12:18PM 41.4403 -94.5600 90° East 517 595 37,000  Level Minneapolis Center
12:19PM 41.4403 -94.3686 90° East 517 595 37,000  Level Minneapolis Center
12:20PM 41.4381 -94.1617 91° East 518 596 37,000  Level Minneapolis Center
12:21PM 41.4378 -93.9714 90° East 517 595 37,000  Level Minneapolis Center
12:23PM 41.4372 -93.7803 90° East 518 596 37,000  Level Minneapolis Center
12:24PM 41.4411 -93.5900 88° East 517 595 37,000  Level Minneapolis Center
12:25PM 41.4622 -93.3992 82° East 521 600 37,000  Level Minneapolis Center
12:26PM 41.4789 -93.2111 83° East 517 595 37,000  Level Minneapolis Center
12:27PM 41.5006 -92.9864 83° East 513 590 37,000 240 Level Minneapolis Center
12:28PM 41.5178 -92.8000 83° East 510 587 37,500 420 Climbing Minneapolis Center
12:29PM 41.5350 -92.6128 83° East 510 587 37,900 420 Climbing Minneapolis Center
12:29PM 41.5447 -92.4950 84° East 517 595 38,200 480 Climbing Chicago Center
12:30PM 41.5625 -92.3036 83° East 524 603 38,700 360 Climbing Chicago Center
12:31PM 41.5778 -92.1119 84° East 525 604 39,000 120 Climbing Chicago Center
12:32PM 41.5964 -91.8833 84° East 524 603 39,000  Level Chicago Center
12:33PM 41.6125 -91.6919 84° East 524 603 39,000  Level Chicago Center
12:34PM 41.6272 -91.5042 84° East 518 596 39,000  Level Chicago Center
12:36PM 41.6425 -91.3189 84° East 513 590 39,000  Level Chicago Center
12:37PM 41.6561 -91.1306 84° East 514 592 39,000  Level Chicago Center
12:38PM 41.6733 -90.9039 84° East 517 595 39,000  Level Chicago Center
12:39PM 41.6875 -90.7136 84° East 518 596 39,000  Level Chicago Center
12:40PM 41.7028 -90.5092 84° East 514 592 39,000  Level Chicago Center
12:41PM 41.6653 -90.3272 105° East 514 592 39,000  Level Chicago Center
12:42PM 41.5664 -90.2042 137° Southeast 490 564 39,000  Level Chicago Center
12:43PM 41.4561 -90.0975 144° Southeast 490 564 39,000  Level Chicago Center
12:44PM 41.3881 -89.9347 119° Southeast 521 600 39,000  Level Chicago Center
12:45PM 41.4014 -89.7478 85° East 525 604 39,000  Level Chicago Center
12:46PM 41.4764 -89.5925 57° Northeast 506 582 39,000  Level Chicago Center
12:47PM 41.5589 -89.4306 56° Northeast 500 575 39,000  Level Chicago Center
12:48PM 41.6517 -89.2461 56° Northeast 499 574 39,000  Level Chicago Center
12:49PM 41.6786 -89.0608 79° East 508 585 39,000  Level Chicago Center
12:50PM 41.6950 -88.8733 83° East 512 589 39,000  Level Chicago Center
12:51PM 41.7114 -88.6836 83° East 514 592 39,000  Level Chicago Center
12:52PM 41.7269 -88.4947 84° East 511 588 39,000  Level Chicago Center
12:53PM 41.7428 -88.3056 84° East 512 589 39,000  Level Chicago Center
12:54PM 41.7622 -88.0758 83° East 515 593 39,000  Level Chicago Center
12:55PM 41.7758 -87.8839 85° East 514 592 39,000  Level Chicago Center
12:56PM 41.7911 -87.6942 84° East 511 588 39,000  Level Chicago Center
12:57PM 41.8050 -87.5047 84° East 510 587 39,000  Level Chicago Center
12:58PM 41.8181 -87.3156 85° East 511 588 39,000  Level Chicago Center
12:59PM 41.8586 -87.1392 73° East 504 580 39,000  Level Chicago Center
01:00PM 41.9594 -87.0225 41° Northeast 487 560 39,000  Level Chicago Center
01:01PM 42.0911 -86.9081 33° Northeast 473 544 39,000  Level Chicago Center
01:02PM 42.2003 -86.8131 33° Northeast 471 542 39,000  Level Chicago Center
01:03PM 42.2303 -86.6283 78° East 495 570 39,000  Level Chicago Center
01:04PM 42.2144 -86.4428 97° East 497 572 39,000  Level Chicago Center
01:06PM 42.1994 -86.2589 96° East 496 571 39,000  Level Chicago Center
01:07PM 42.1836 -86.0739 97° East 495 570 39,000  Level Chicago Center
01:08PM 42.1664 -85.8672 96° East 497 572 39,000  Level Chicago Center
01:09PM 42.1506 -85.6825 97° East 498 573 39,000  Level Chicago Center
01:10PM 42.1344 -85.5003 97° East 496 571 39,000  Level Chicago Center
01:11PM 42.1175 -85.3150 97° East 506 582 39,000  Level Chicago Center
01:12PM 42.0978 -85.0900 97° East 509 586 39,000  Level Chicago Center
01:13PM 42.0789 -84.9042 98° East 505 581 39,000  Level Chicago Center
01:14PM 42.0619 -84.7197 97° East 500 575 39,000  Level Chicago Center
01:15PM 42.0431 -84.5344 98° East 503 579 39,000  Level Chicago Center
01:16PM 42.0253 -84.3486 97° East 504 580 39,000  Level Chicago Center
01:17PM 42.0064 -84.1633 98° East 503 579 39,000  Level Chicago Center
01:18PM 41.9822 -83.9417 98° East 502 578 39,000  Level Chicago Center
01:19PM 41.9558 -83.7069 99° East 507 583 39,000  Level Cleveland Center
01:20PM 41.9369 -83.5364 98° East 512 589 39,000  Level Cleveland Center
01:21PM 41.9328 -83.3439 92° East 511 588 39,000  Level Cleveland Center
01:22PM 41.9314 -83.1444 90° East 512 589 39,000  Level Cleveland Center
01:23PM 41.9303 -82.9542 90° East 515 593 39,000  Level Cleveland Center
01:24PM 41.9289 -82.7247 90° East 515 593 39,000  Level Cleveland Center
01:25PM 41.9272 -82.5356 91° East 512 589 39,000  Level Cleveland Center
01:26PM 41.9256 -82.3453 91° East 511 588 39,000  Level Cleveland Center
01:27PM 41.9222 -82.1550 91° East 513 590 39,000  Level Cleveland Center
01:28PM 41.9189 -81.9589 91° East 510 587 39,000  Level Cleveland Center
01:29PM 41.9131 -81.7664 92° East 510 587 39,000  Level Cleveland Center
01:31PM 41.8908 -81.5422 98° East 512 589 39,000  Level Cleveland Center
01:32PM 41.8728 -81.3478 97° East 516 594 39,000  Level Cleveland Center
01:33PM 41.8556 -81.1558 97° East 512 589 39,000  Level Cleveland Center
01:34PM 41.8381 -80.9689 97° East 501 577 39,000  Level Cleveland Center
01:35PM 41.8219 -80.7789 96° East 506 582 39,000  Level Cleveland Center
01:36PM 41.8019 -80.5889 98° East 507 583 39,000  Level Cleveland Center
01:37PM 41.7839 -80.4014 97° East 503 579 39,000  Level Cleveland Center
01:38PM 41.7633 -80.2133 98° East 505 581 39,000  Level Cleveland Center
01:39PM 41.7450 -80.0258 97° East 504 580 39,000  Level Cleveland Center
01:40PM 41.7219 -79.8081 98° East 504 580 39,000  Level Cleveland Center
01:41PM 41.7017 -79.6181 98° East 508 585 39,000  Level Cleveland Center
01:42PM 41.6808 -79.4203 98° East 504 580 39,000  Level Cleveland Center
01:43PM 41.6631 -79.2592 98° East 507 583 39,000  Level Cleveland Center
01:44PM 41.6394 -79.0486 98° East 505 581 39,000  Level Cleveland Center
01:45PM 41.6189 -78.8644 98° East 504 580 39,000 -720 Level Cleveland Center
01:46PM 41.5969 -78.6775 99° East 507 583 37,600 -1,620 Descending Cleveland Center
01:47PM 41.5756 -78.4922 99° East 505 581 35,700 -2,040 Descending Cleveland Center
01:48PM 41.5483 -78.2711 99° East 503 579 33,400 -2,040 Descending Cleveland Center
01:49PM 41.5267 -78.0886 99° East 499 574 31,500 -1,200 Descending Cleveland Center
01:50PM 41.5044 -77.9061 99° East 499 574 31,000 -300 Descending Cleveland Center
01:51PM 41.4789 -77.7250 101° East 499 574 31,000  Level Cleveland Center
01:52PM 41.4525 -77.5444 101° East 499 574 31,000 -300 Level Cleveland Center
01:53PM 41.4261 -77.3644 101° East 498 573 30,500 -840 Descending Cleveland Center
01:54PM 41.3944 -77.1497 101° East 497 572 29,300 -1,020 Descending Cleveland Center
01:55PM 41.3681 -76.9719 101° East 494 568 28,400 -960 Descending Cleveland Center
01:56PM 41.3431 -76.7939 101° East 493 567 27,400 -1,020 Descending Cleveland Center
01:57PM 41.2961 -76.6167 109° East 508 585 26,300 -1,740 Descending Cleveland Center
01:58PM 41.2517 -76.4489 109° East 495 570 23,900 -2,520 Descending Cleveland Center
01:59PM 41.2014 -76.2592 109° East 465 535 21,100 -2,520 Descending Cleveland Center
02:01PM 41.1558 -76.1033 111° Southeast 457 526 18,700 -1,560 Descending New York Center
02:02PM 41.1203 -75.9656 109° East 445 512 18,000 -1,200 Descending New York Center
02:03PM 41.0753 -75.8053 110° East 439 505 16,400 -1,920 Descending New York Center
02:04PM 41.0375 -75.6622 109° East 415 478 14,200 -1,740 Descending New York Center
02:05PM 40.9992 -75.5300 111° Southeast 397 457 13,000 -720 Descending New York Center
02:06PM 40.9683 -75.4153 110° East 346 398 12,800 -720 Descending New York Center
02:07PM 40.9369 -75.3061 111° Southeast 327 376 11,600 -1,260 Descending New York Center
02:08PM 40.9056 -75.2022 112° Southeast 309 356 10,400 -1,260 Descending New York Center
02:09PM 40.8781 -75.1044 110° East 309 356 9,200 -1,260 Descending New York Center
02:10PM 40.8503 -75.0011 110° East 309 356 7,900 -1,140 Descending New York Center
02:11PM 40.8125 -74.8947 115° Southeast 293 337 7,000 -420 Descending New York Center
02:12PM 40.7700 -74.7989 120° Southeast 298 343 7,100 -420 Climbing New York Center
02:13PM 40.7272 -74.7114 123° Southeast 292 336 6,200 -960 Descending New York Center
02:14PM 40.6842 -74.6242 123° Southeast 292 336 5,200 -600 Descending New York Center
02:15PM 40.6411 -74.5369 123° Southeast 286 329 5,000 -120 Descending New York Center
02:16PM 40.6042 -74.4583 122° Southeast 286 329 5,000 -360 Level New York Center
02:17PM 40.5608 -74.3714 123° Southeast 266 306 4,300 -900 Descending New York Center
02:18PM 40.5400 -74.3019 112° Southeast 252 290 3,200 -1,140 Descending New York Center
02:19PM 40.5753 -74.2356 55° Northeast 180 207 2,100 -960 Descending New York Center
02:20PM 40.6156 -74.2131 23° Northeast 169 194 1,400 -840 Descending New York Center
02:21PM 40.6603 -74.1853 25° Northeast 163 188 500 -540 Descending New York Center
02:22PM 40.6986 -74.1569 29° Northeast 154 177 400 -120 Descending New York Center